sensor_id;sensor_type;location;lat;lon;timestamp;temperature;humidity
60701;DHT22;46541;49.894;10.886;2024-01-25T00:00:20;8.90;99.90
60701;DHT22;46541;49.894;10.886;2024-01-25T00:02:47;8.90;99.90
60701;DHT22;46541;49.894;10.886;2024-01-25T00:05:13;8.90;99.90
60701;DHT22;46541;49.894;10.886;2024-01-25T00:07:50;8.90;99.90
60701;DHT22;46541;49.894;10.886;2024-01-25T00:10:17;9.00;99.90
60701;DHT22;46541;49.894;10.886;2024-01-25T00:12:45;9.00;99.90
60701;DHT22;46541;49.894;10.886;2024-01-25T00:15:12;9.00;99.90
60701;DHT22;46541;49.894;10.886;2024-01-25T00:17:39;9.00;99.90
60701;DHT22;46541;49.894;10.886;2024-01-25T00:20:08;9.00;99.90
60701;DHT22;46541;49.894;10.886;2024-01-25T00:22:36;8.90;99.90
60701;DHT22;46541;49.894;10.886;2024-01-25T00:25:04;8.90;99.90
60701;DHT22;46541;49.894;10.886;2024-01-25T00:27:31;8.90;99.90
60701;DHT22;46541;49.894;10.886;2024-01-25T00:29:58;8.90;99.90
60701;DHT22;46541;49.894;10.886;2024-01-25T00:32:25;8.90;99.90
60701;DHT22;46541;49.894;10.886;2024-01-25T00:34:52;8.90;99.90
60701;DHT22;46541;49.894;10.886;2024-01-25T00:37:19;8.90;99.90
60701;DHT22;46541;49.894;10.886;2024-01-25T00:39:47;8.90;99.90
60701;DHT22;46541;49.894;10.886;2024-01-25T00:42:16;8.80;99.90
60701;DHT22;46541;49.894;10.886;2024-01-25T00:44:43;8.80;99.90
60701;DHT22;46541;49.894;10.886;2024-01-25T00:47:10;8.80;99.90
60701;DHT22;46541;49.894;10.886;2024-01-25T00:49:37;8.80;99.90
60701;DHT22;46541;49.894;10.886;2024-01-25T00:52:04;8.80;99.90
60701;DHT22;46541;49.894;10.886;2024-01-25T00:54:32;8.80;99.90
60701;DHT22;46541;49.894;10.886;2024-01-25T00:56:59;8.90;99.90
60701;DHT22;46541;49.894;10.886;2024-01-25T00:59:26;8.90;99.90
60701;DHT22;46541;49.894;10.886;2024-01-25T01:01:53;8.80;99.90
60701;DHT22;46541;49.894;10.886;2024-01-25T01:04:22;8.90;99.90
60701;DHT22;46541;49.894;10.886;2024-01-25T01:06:49;8.90;99.90
60701;DHT22;46541;49.894;10.886;2024-01-25T01:09:16;8.80;99.90
60701;DHT22;46541;49.894;10.886;2024-01-25T01:11:44;8.80;99.90
60701;DHT22;46541;49.894;10.886;2024-01-25T01:14:11;8.80;99.90
60701;DHT22;46541;49.894;10.886;2024-01-25T01:16:38;8.80;99.90
60701;DHT22;46541;49.894;10.886;2024-01-25T01:19:05;8.80;99.90
60701;DHT22;46541;49.894;10.886;2024-01-25T01:21:34;8.80;99.90
60701;DHT22;46541;49.894;10.886;2024-01-25T01:24:02;8.80;99.90
60701;DHT22;46541;49.894;10.886;2024-01-25T01:26:28;8.80;99.90
60701;DHT22;46541;49.894;10.886;2024-01-25T01:28:55;8.80;99.90
60701;DHT22;46541;49.894;10.886;2024-01-25T01:31:22;8.70;99.90
60701;DHT22;46541;49.894;10.886;2024-01-25T01:33:49;8.70;99.90
60701;DHT22;46541;49.894;10.886;2024-01-25T01:36:16;8.70;99.90
60701;DHT22;46541;49.894;10.886;2024-01-25T01:38:42;8.70;99.90
60701;DHT22;46541;49.894;10.886;2024-01-25T01:41:10;8.60;99.90
60701;DHT22;46541;49.894;10.886;2024-01-25T01:43:39;8.60;99.90
60701;DHT22;46541;49.894;10.886;2024-01-25T01:48:58;8.60;99.90
60701;DHT22;46541;49.894;10.886;2024-01-25T01:51:25;8.60;99.90
60701;DHT22;46541;49.894;10.886;2024-01-25T01:53:53;8.60;99.90
60701;DHT22;46541;49.894;10.886;2024-01-25T01:56:20;8.60;99.90
60701;DHT22;46541;49.894;10.886;2024-01-25T01:58:47;8.70;99.90
60701;DHT22;46541;49.894;10.886;2024-01-25T02:01:15;8.70;99.90
60701;DHT22;46541;49.894;10.886;2024-01-25T02:03:42;8.70;99.90
60701;DHT22;46541;49.894;10.886;2024-01-25T02:06:09;8.70;99.90
60701;DHT22;46541;49.894;10.886;2024-01-25T02:08:36;8.70;99.90
60701;DHT22;46541;49.894;10.886;2024-01-25T02:11:03;8.70;99.90
60701;DHT22;46541;49.894;10.886;2024-01-25T02:13:29;8.70;99.90
60701;DHT22;46541;49.894;10.886;2024-01-25T02:15:56;8.70;99.90
60701;DHT22;46541;49.894;10.886;2024-01-25T02:18:23;8.80;99.90
60701;DHT22;46541;49.894;10.886;2024-01-25T02:20:50;8.80;99.90
60701;DHT22;46541;49.894;10.886;2024-01-25T02:23:17;8.80;99.90
60701;DHT22;46541;49.894;10.886;2024-01-25T02:25:44;8.80;99.90
60701;DHT22;46541;49.894;10.886;2024-01-25T02:28:11;8.80;99.90
60701;DHT22;46541;49.894;10.886;2024-01-25T02:30:38;8.80;99.90
60701;DHT22;46541;49.894;10.886;2024-01-25T02:33:05;8.80;99.90
60701;DHT22;46541;49.894;10.886;2024-01-25T02:35:32;8.80;99.90
60701;DHT22;46541;49.894;10.886;2024-01-25T02:37:59;8.80;99.90
60701;DHT22;46541;49.894;10.886;2024-01-25T02:40:26;8.80;99.90
60701;DHT22;46541;49.894;10.886;2024-01-25T02:42:53;8.80;99.90
60701;DHT22;46541;49.894;10.886;2024-01-25T02:45:20;8.80;99.90
60701;DHT22;46541;49.894;10.886;2024-01-25T02:47:46;8.80;99.90
60701;DHT22;46541;49.894;10.886;2024-01-25T02:50:13;8.80;99.90
60701;DHT22;46541;49.894;10.886;2024-01-25T02:52:40;8.80;99.90
60701;DHT22;46541;49.894;10.886;2024-01-25T02:55:07;8.80;99.90
60701;DHT22;46541;49.894;10.886;2024-01-25T02:57:34;8.80;99.90
60701;DHT22;46541;49.894;10.886;2024-01-25T03:00:01;8.80;99.90
60701;DHT22;46541;49.894;10.886;2024-01-25T03:02:29;8.80;99.90
60701;DHT22;46541;49.894;10.886;2024-01-25T03:04:56;8.80;99.90
60701;DHT22;46541;49.894;10.886;2024-01-25T03:07:23;8.80;99.90
60701;DHT22;46541;49.894;10.886;2024-01-25T03:09:50;8.80;99.90
60701;DHT22;46541;49.894;10.886;2024-01-25T03:12:16;8.80;99.90
60701;DHT22;46541;49.894;10.886;2024-01-25T03:14:43;8.80;99.90
60701;DHT22;46541;49.894;10.886;2024-01-25T03:17:10;8.80;99.90
60701;DHT22;46541;49.894;10.886;2024-01-25T03:19:39;8.80;99.90
60701;DHT22;46541;49.894;10.886;2024-01-25T03:22:05;8.80;99.90
60701;DHT22;46541;49.894;10.886;2024-01-25T03:24:32;8.80;99.90
60701;DHT22;46541;49.894;10.886;2024-01-25T03:26:59;8.80;99.90
60701;DHT22;46541;49.894;10.886;2024-01-25T03:29:26;8.80;99.90
60701;DHT22;46541;49.894;10.886;2024-01-25T03:31:53;8.80;99.90
60701;DHT22;46541;49.894;10.886;2024-01-25T03:34:19;8.80;99.90
60701;DHT22;46541;49.894;10.886;2024-01-25T03:36:46;8.80;99.90
60701;DHT22;46541;49.894;10.886;2024-01-25T03:39:13;8.80;99.90
60701;DHT22;46541;49.894;10.886;2024-01-25T03:41:40;8.80;99.90
60701;DHT22;46541;49.894;10.886;2024-01-25T03:44:07;8.80;99.90
60701;DHT22;46541;49.894;10.886;2024-01-25T03:46:33;8.80;99.90
60701;DHT22;46541;49.894;10.886;2024-01-25T03:49:00;8.80;99.90
60701;DHT22;46541;49.894;10.886;2024-01-25T03:51:27;8.80;99.90
60701;DHT22;46541;49.894;10.886;2024-01-25T03:53:54;8.80;99.90
60701;DHT22;46541;49.894;10.886;2024-01-25T03:56:21;8.80;99.90
60701;DHT22;46541;49.894;10.886;2024-01-25T03:58:49;8.80;99.90
60701;DHT22;46541;49.894;10.886;2024-01-25T04:01:16;8.80;99.90
60701;DHT22;46541;49.894;10.886;2024-01-25T04:03:43;8.80;99.90
60701;DHT22;46541;49.894;10.886;2024-01-25T04:06:10;8.80;99.90
60701;DHT22;46541;49.894;10.886;2024-01-25T04:08:37;8.70;99.90
60701;DHT22;46541;49.894;10.886;2024-01-25T04:11:04;8.70;99.90
60701;DHT22;46541;49.894;10.886;2024-01-25T04:13:30;8.70;99.90
60701;DHT22;46541;49.894;10.886;2024-01-25T04:15:58;8.60;99.90
60701;DHT22;46541;49.894;10.886;2024-01-25T04:18:25;8.60;99.90
60701;DHT22;46541;49.894;10.886;2024-01-25T04:20:52;8.50;99.90
60701;DHT22;46541;49.894;10.886;2024-01-25T04:23:18;8.50;99.90
60701;DHT22;46541;49.894;10.886;2024-01-25T04:25:45;8.40;99.90
60701;DHT22;46541;49.894;10.886;2024-01-25T04:28:12;8.40;99.90
60701;DHT22;46541;49.894;10.886;2024-01-25T04:30:39;8.40;99.90
60701;DHT22;46541;49.894;10.886;2024-01-25T04:33:06;8.40;99.90
60701;DHT22;46541;49.894;10.886;2024-01-25T04:35:33;8.30;99.90
60701;DHT22;46541;49.894;10.886;2024-01-25T04:38:00;8.20;99.90
60701;DHT22;46541;49.894;10.886;2024-01-25T04:40:26;8.30;99.90
60701;DHT22;46541;49.894;10.886;2024-01-25T04:42:53;8.30;99.90
60701;DHT22;46541;49.894;10.886;2024-01-25T04:45:21;8.30;99.90
60701;DHT22;46541;49.894;10.886;2024-01-25T04:47:47;8.30;99.90
60701;DHT22;46541;49.894;10.886;2024-01-25T04:50:14;8.30;99.90
60701;DHT22;46541;49.894;10.886;2024-01-25T04:52:41;8.20;99.90
60701;DHT22;46541;49.894;10.886;2024-01-25T04:55:08;8.30;99.90
60701;DHT22;46541;49.894;10.886;2024-01-25T04:57:35;8.40;99.90
60701;DHT22;46541;49.894;10.886;2024-01-25T05:00:02;8.40;99.90
60701;DHT22;46541;49.894;10.886;2024-01-25T05:02:29;8.40;99.90
60701;DHT22;46541;49.894;10.886;2024-01-25T05:04:56;8.40;99.90
60701;DHT22;46541;49.894;10.886;2024-01-25T05:07:23;8.40;99.90
60701;DHT22;46541;49.894;10.886;2024-01-25T05:09:56;8.40;99.90
60701;DHT22;46541;49.894;10.886;2024-01-25T05:12:23;8.40;99.90
60701;DHT22;46541;49.894;10.886;2024-01-25T05:14:50;8.50;99.90
60701;DHT22;46541;49.894;10.886;2024-01-25T05:17:17;8.50;99.90
60701;DHT22;46541;49.894;10.886;2024-01-25T05:19:44;8.50;99.90
60701;DHT22;46541;49.894;10.886;2024-01-25T05:22:11;8.40;99.90
60701;DHT22;46541;49.894;10.886;2024-01-25T05:24:38;8.40;99.90
60701;DHT22;46541;49.894;10.886;2024-01-25T05:27:05;8.40;99.90
60701;DHT22;46541;49.894;10.886;2024-01-25T05:29:31;8.40;99.90
60701;DHT22;46541;49.894;10.886;2024-01-25T05:31:58;8.30;99.90
60701;DHT22;46541;49.894;10.886;2024-01-25T05:34:25;8.40;99.90
60701;DHT22;46541;49.894;10.886;2024-01-25T05:36:52;8.30;99.90
60701;DHT22;46541;49.894;10.886;2024-01-25T05:39:19;8.30;99.90
60701;DHT22;46541;49.894;10.886;2024-01-25T05:41:46;8.40;99.90
60701;DHT22;46541;49.894;10.886;2024-01-25T05:44:13;8.30;99.90
60701;DHT22;46541;49.894;10.886;2024-01-25T05:46:40;8.30;99.90
60701;DHT22;46541;49.894;10.886;2024-01-25T05:49:07;8.30;99.90
60701;DHT22;46541;49.894;10.886;2024-01-25T05:51:34;8.20;99.90
60701;DHT22;46541;49.894;10.886;2024-01-25T05:54:00;8.20;99.90
60701;DHT22;46541;49.894;10.886;2024-01-25T05:56:27;8.10;99.90
60701;DHT22;46541;49.894;10.886;2024-01-25T05:58:54;8.10;99.90
60701;DHT22;46541;49.894;10.886;2024-01-25T06:01:21;8.00;99.90
60701;DHT22;46541;49.894;10.886;2024-01-25T06:03:47;8.10;99.90
60701;DHT22;46541;49.894;10.886;2024-01-25T06:06:14;8.00;99.90
60701;DHT22;46541;49.894;10.886;2024-01-25T06:08:41;8.00;99.90
60701;DHT22;46541;49.894;10.886;2024-01-25T06:11:17;8.00;99.90
60701;DHT22;46541;49.894;10.886;2024-01-25T06:13:43;8.00;99.90
60701;DHT22;46541;49.894;10.886;2024-01-25T06:16:11;8.00;99.90
60701;DHT22;46541;49.894;10.886;2024-01-25T06:18:38;7.90;99.90
60701;DHT22;46541;49.894;10.886;2024-01-25T06:21:04;7.90;99.90
60701;DHT22;46541;49.894;10.886;2024-01-25T06:23:31;7.80;99.90
60701;DHT22;46541;49.894;10.886;2024-01-25T06:25:58;7.80;99.90
60701;DHT22;46541;49.894;10.886;2024-01-25T06:28:25;7.80;99.90
60701;DHT22;46541;49.894;10.886;2024-01-25T06:30:52;7.80;99.90
60701;DHT22;46541;49.894;10.886;2024-01-25T06:33:19;7.80;99.90
60701;DHT22;46541;49.894;10.886;2024-01-25T06:35:46;7.70;99.90
60701;DHT22;46541;49.894;10.886;2024-01-25T06:38:13;7.70;99.90
60701;DHT22;46541;49.894;10.886;2024-01-25T06:40:40;7.70;99.90
60701;DHT22;46541;49.894;10.886;2024-01-25T06:43:07;7.70;99.90
60701;DHT22;46541;49.894;10.886;2024-01-25T06:45:33;7.70;99.90
60701;DHT22;46541;49.894;10.886;2024-01-25T06:48:00;7.60;99.90
60701;DHT22;46541;49.894;10.886;2024-01-25T06:50:27;7.60;99.90
60701;DHT22;46541;49.894;10.886;2024-01-25T06:52:54;7.60;99.90
60701;DHT22;46541;49.894;10.886;2024-01-25T06:55:21;7.60;99.90
60701;DHT22;46541;49.894;10.886;2024-01-25T06:57:49;7.60;99.90
60701;DHT22;46541;49.894;10.886;2024-01-25T07:00:16;7.60;99.90
60701;DHT22;46541;49.894;10.886;2024-01-25T07:02:43;7.60;99.90
60701;DHT22;46541;49.894;10.886;2024-01-25T07:05:11;7.60;99.90
60701;DHT22;46541;49.894;10.886;2024-01-25T07:07:39;7.60;99.90
60701;DHT22;46541;49.894;10.886;2024-01-25T07:10:07;7.60;99.90
60701;DHT22;46541;49.894;10.886;2024-01-25T07:12:34;7.60;99.90
60701;DHT22;46541;49.894;10.886;2024-01-25T07:15:01;7.60;99.90
60701;DHT22;46541;49.894;10.886;2024-01-25T07:17:28;7.60;99.90
60701;DHT22;46541;49.894;10.886;2024-01-25T07:19:55;7.60;99.90
60701;DHT22;46541;49.894;10.886;2024-01-25T07:22:22;7.60;99.90
60701;DHT22;46541;49.894;10.886;2024-01-25T07:24:49;7.60;99.90
60701;DHT22;46541;49.894;10.886;2024-01-25T07:27:16;7.70;99.90
60701;DHT22;46541;49.894;10.886;2024-01-25T07:29:44;7.70;99.90
60701;DHT22;46541;49.894;10.886;2024-01-25T07:32:12;7.70;99.90
60701;DHT22;46541;49.894;10.886;2024-01-25T07:34:39;7.80;99.90
60701;DHT22;46541;49.894;10.886;2024-01-25T07:37:06;7.80;99.90
60701;DHT22;46541;49.894;10.886;2024-01-25T07:39:33;7.80;99.90
60701;DHT22;46541;49.894;10.886;2024-01-25T07:41:59;7.90;99.90
60701;DHT22;46541;49.894;10.886;2024-01-25T07:44:26;7.80;99.90
60701;DHT22;46541;49.894;10.886;2024-01-25T07:46:53;7.90;99.90
60701;DHT22;46541;49.894;10.886;2024-01-25T07:49:20;7.90;99.90
60701;DHT22;46541;49.894;10.886;2024-01-25T07:51:47;7.90;99.90
60701;DHT22;46541;49.894;10.886;2024-01-25T07:54:14;7.90;99.90
60701;DHT22;46541;49.894;10.886;2024-01-25T07:56:41;8.00;99.90
60701;DHT22;46541;49.894;10.886;2024-01-25T07:59:08;8.00;99.90
60701;DHT22;46541;49.894;10.886;2024-01-25T08:01:35;7.90;99.90
60701;DHT22;46541;49.894;10.886;2024-01-25T08:04:01;8.00;99.90
60701;DHT22;46541;49.894;10.886;2024-01-25T08:06:30;8.10;99.90
60701;DHT22;46541;49.894;10.886;2024-01-25T08:08:57;8.10;99.90
60701;DHT22;46541;49.894;10.886;2024-01-25T08:11:24;8.10;99.90
60701;DHT22;46541;49.894;10.886;2024-01-25T08:13:51;8.20;99.90
60701;DHT22;46541;49.894;10.886;2024-01-25T08:16:18;8.20;99.90
60701;DHT22;46541;49.894;10.886;2024-01-25T08:18:48;8.20;99.90
60701;DHT22;46541;49.894;10.886;2024-01-25T08:21:16;8.20;99.90
60701;DHT22;46541;49.894;10.886;2024-01-25T08:23:44;8.20;99.90
60701;DHT22;46541;49.894;10.886;2024-01-25T08:26:10;8.20;99.90
60701;DHT22;46541;49.894;10.886;2024-01-25T08:28:42;8.20;99.90
60701;DHT22;46541;49.894;10.886;2024-01-25T08:31:11;8.20;99.90
60701;DHT22;46541;49.894;10.886;2024-01-25T08:33:39;8.20;99.90
60701;DHT22;46541;49.894;10.886;2024-01-25T08:36:17;8.20;99.90
60701;DHT22;46541;49.894;10.886;2024-01-25T08:38:45;8.20;99.90
60701;DHT22;46541;49.894;10.886;2024-01-25T08:41:12;8.20;99.90
60701;DHT22;46541;49.894;10.886;2024-01-25T08:43:42;8.30;99.90
60701;DHT22;46541;49.894;10.886;2024-01-25T08:46:08;8.20;99.90
60701;DHT22;46541;49.894;10.886;2024-01-25T08:48:35;8.20;99.90
60701;DHT22;46541;49.894;10.886;2024-01-25T08:51:03;8.30;99.90
60701;DHT22;46541;49.894;10.886;2024-01-25T08:53:30;8.30;99.90
60701;DHT22;46541;49.894;10.886;2024-01-25T08:55:57;8.30;99.90
60701;DHT22;46541;49.894;10.886;2024-01-25T08:58:24;8.30;99.90
60701;DHT22;46541;49.894;10.886;2024-01-25T09:00:51;8.40;99.90
60701;DHT22;46541;49.894;10.886;2024-01-25T09:03:18;8.40;99.90
60701;DHT22;46541;49.894;10.886;2024-01-25T09:05:45;8.50;99.90
60701;DHT22;46541;49.894;10.886;2024-01-25T09:08:13;8.50;99.90
60701;DHT22;46541;49.894;10.886;2024-01-25T09:10:41;8.60;99.90
60701;DHT22;46541;49.894;10.886;2024-01-25T09:13:08;8.60;99.90
60701;DHT22;46541;49.894;10.886;2024-01-25T09:15:36;8.70;99.90
60701;DHT22;46541;49.894;10.886;2024-01-25T09:18:03;8.70;99.90
60701;DHT22;46541;49.894;10.886;2024-01-25T09:20:30;8.70;99.90
60701;DHT22;46541;49.894;10.886;2024-01-25T09:22:57;8.70;99.90
60701;DHT22;46541;49.894;10.886;2024-01-25T09:25:23;8.70;99.90
60701;DHT22;46541;49.894;10.886;2024-01-25T09:27:51;8.80;99.90
60701;DHT22;46541;49.894;10.886;2024-01-25T09:30:20;8.90;99.90
60701;DHT22;46541;49.894;10.886;2024-01-25T09:32:47;8.90;99.90
60701;DHT22;46541;49.894;10.886;2024-01-25T09:35:15;9.00;99.90
60701;DHT22;46541;49.894;10.886;2024-01-25T09:37:42;9.00;99.90
60701;DHT22;46541;49.894;10.886;2024-01-25T09:40:09;9.10;99.90
60701;DHT22;46541;49.894;10.886;2024-01-25T09:42:38;9.10;99.90
60701;DHT22;46541;49.894;10.886;2024-01-25T09:45:06;9.10;99.90
60701;DHT22;46541;49.894;10.886;2024-01-25T09:47:34;9.20;99.90
60701;DHT22;46541;49.894;10.886;2024-01-25T09:50:01;9.10;99.90
60701;DHT22;46541;49.894;10.886;2024-01-25T09:52:29;9.10;99.90
60701;DHT22;46541;49.894;10.886;2024-01-25T09:54:57;9.00;99.90
60701;DHT22;46541;49.894;10.886;2024-01-25T09:57:28;9.10;99.90
60701;DHT22;46541;49.894;10.886;2024-01-25T09:59:55;9.10;99.90
60701;DHT22;46541;49.894;10.886;2024-01-25T10:02:22;9.10;99.90
60701;DHT22;46541;49.894;10.886;2024-01-25T10:04:50;9.20;99.90
60701;DHT22;46541;49.894;10.886;2024-01-25T10:07:38;9.30;99.90
60701;DHT22;46541;49.894;10.886;2024-01-25T10:10:06;9.40;99.90
60701;DHT22;46541;49.894;10.886;2024-01-25T10:12:33;9.40;99.90
60701;DHT22;46541;49.894;10.886;2024-01-25T10:15:00;9.50;99.90
60701;DHT22;46541;49.894;10.886;2024-01-25T10:17:30;9.60;99.90
60701;DHT22;46541;49.894;10.886;2024-01-25T10:20:18;9.50;99.90
60701;DHT22;46541;49.894;10.886;2024-01-25T10:22:48;9.60;99.90
60701;DHT22;46541;49.894;10.886;2024-01-25T10:25:15;9.60;99.90
60701;DHT22;46541;49.894;10.886;2024-01-25T10:27:42;9.60;99.90
60701;DHT22;46541;49.894;10.886;2024-01-25T10:30:10;9.50;99.90
60701;DHT22;46541;49.894;10.886;2024-01-25T10:32:38;9.60;99.90
60701;DHT22;46541;49.894;10.886;2024-01-25T10:35:06;9.70;99.90
60701;DHT22;46541;49.894;10.886;2024-01-25T10:37:36;9.70;99.90
60701;DHT22;46541;49.894;10.886;2024-01-25T10:40:05;9.80;99.90
60701;DHT22;46541;49.894;10.886;2024-01-25T10:42:32;9.70;99.90
60701;DHT22;46541;49.894;10.886;2024-01-25T10:44:59;9.80;99.90
60701;DHT22;46541;49.894;10.886;2024-01-25T10:47:27;9.80;99.90
60701;DHT22;46541;49.894;10.886;2024-01-25T10:49:57;9.90;99.90
60701;DHT22;46541;49.894;10.886;2024-01-25T10:52:25;9.90;99.90
60701;DHT22;46541;49.894;10.886;2024-01-25T10:54:53;10.00;99.90
60701;DHT22;46541;49.894;10.886;2024-01-25T10:57:20;10.00;99.90
60701;DHT22;46541;49.894;10.886;2024-01-25T10:59:47;10.00;99.90
60701;DHT22;46541;49.894;10.886;2024-01-25T11:02:14;10.00;99.90
60701;DHT22;46541;49.894;10.886;2024-01-25T11:04:53;10.10;99.90
60701;DHT22;46541;49.894;10.886;2024-01-25T11:07:22;10.10;99.90
60701;DHT22;46541;49.894;10.886;2024-01-25T11:09:51;10.20;99.90
60701;DHT22;46541;49.894;10.886;2024-01-25T11:12:19;10.20;99.90
60701;DHT22;46541;49.894;10.886;2024-01-25T11:14:54;10.20;99.90
60701;DHT22;46541;49.894;10.886;2024-01-25T11:17:22;10.30;99.90
60701;DHT22;46541;49.894;10.886;2024-01-25T11:19:49;10.30;99.90
60701;DHT22;46541;49.894;10.886;2024-01-25T11:22:19;10.30;99.90
60701;DHT22;46541;49.894;10.886;2024-01-25T11:24:46;10.30;99.90
60701;DHT22;46541;49.894;10.886;2024-01-25T11:27:15;10.30;99.90
60701;DHT22;46541;49.894;10.886;2024-01-25T11:29:42;10.30;99.90
60701;DHT22;46541;49.894;10.886;2024-01-25T11:32:11;10.30;99.90
60701;DHT22;46541;49.894;10.886;2024-01-25T11:34:38;10.40;99.90
60701;DHT22;46541;49.894;10.886;2024-01-25T11:37:05;10.50;99.90
60701;DHT22;46541;49.894;10.886;2024-01-25T11:39:32;10.50;99.90
60701;DHT22;46541;49.894;10.886;2024-01-25T11:41:59;10.50;99.90
60701;DHT22;46541;49.894;10.886;2024-01-25T11:44:26;10.50;99.90
60701;DHT22;46541;49.894;10.886;2024-01-25T11:46:54;10.50;99.90
60701;DHT22;46541;49.894;10.886;2024-01-25T11:49:24;10.50;99.90
60701;DHT22;46541;49.894;10.886;2024-01-25T11:51:51;10.50;99.90
60701;DHT22;46541;49.894;10.886;2024-01-25T11:54:18;10.50;99.90
60701;DHT22;46541;49.894;10.886;2024-01-25T11:56:45;10.50;99.90
60701;DHT22;46541;49.894;10.886;2024-01-25T11:59:12;10.60;99.90
60701;DHT22;46541;49.894;10.886;2024-01-25T12:01:40;10.70;99.90
60701;DHT22;46541;49.894;10.886;2024-01-25T12:04:08;10.70;99.90
60701;DHT22;46541;49.894;10.886;2024-01-25T12:06:36;10.70;99.90
60701;DHT22;46541;49.894;10.886;2024-01-25T12:09:08;10.60;99.90
60701;DHT22;46541;49.894;10.886;2024-01-25T12:11:35;10.60;99.90
60701;DHT22;46541;49.894;10.886;2024-01-25T12:14:02;10.60;99.90
60701;DHT22;46541;49.894;10.886;2024-01-25T12:16:29;10.50;99.90
60701;DHT22;46541;49.894;10.886;2024-01-25T12:18:57;10.40;99.90
60701;DHT22;46541;49.894;10.886;2024-01-25T12:21:25;10.40;99.90
60701;DHT22;46541;49.894;10.886;2024-01-25T12:23:51;10.50;99.90
60701;DHT22;46541;49.894;10.886;2024-01-25T12:26:18;10.50;99.90
60701;DHT22;46541;49.894;10.886;2024-01-25T12:28:45;10.50;99.90
60701;DHT22;46541;49.894;10.886;2024-01-25T12:31:13;10.60;99.90
60701;DHT22;46541;49.894;10.886;2024-01-25T12:33:41;10.60;99.90
60701;DHT22;46541;49.894;10.886;2024-01-25T12:36:09;10.50;99.90
60701;DHT22;46541;49.894;10.886;2024-01-25T12:38:36;10.60;99.90
60701;DHT22;46541;49.894;10.886;2024-01-25T12:41:03;10.70;99.90
60701;DHT22;46541;49.894;10.886;2024-01-25T12:43:31;10.70;99.90
60701;DHT22;46541;49.894;10.886;2024-01-25T12:45:59;10.70;99.90
60701;DHT22;46541;49.894;10.886;2024-01-25T12:48:43;10.70;99.90
60701;DHT22;46541;49.894;10.886;2024-01-25T12:51:11;10.70;99.90
60701;DHT22;46541;49.894;10.886;2024-01-25T12:53:38;10.60;99.90
60701;DHT22;46541;49.894;10.886;2024-01-25T12:56:06;10.60;99.90
60701;DHT22;46541;49.894;10.886;2024-01-25T12:58:33;10.60;99.90
60701;DHT22;46541;49.894;10.886;2024-01-25T13:00:59;10.60;99.90
60701;DHT22;46541;49.894;10.886;2024-01-25T13:03:27;10.60;99.90
60701;DHT22;46541;49.894;10.886;2024-01-25T13:05:53;10.60;99.90
60701;DHT22;46541;49.894;10.886;2024-01-25T13:08:21;10.70;99.90
60701;DHT22;46541;49.894;10.886;2024-01-25T13:10:47;10.70;99.90
60701;DHT22;46541;49.894;10.886;2024-01-25T13:13:14;10.70;99.90
60701;DHT22;46541;49.894;10.886;2024-01-25T13:15:41;10.70;99.90
60701;DHT22;46541;49.894;10.886;2024-01-25T13:18:08;10.70;99.90
60701;DHT22;46541;49.894;10.886;2024-01-25T13:20:34;10.60;99.90
60701;DHT22;46541;49.894;10.886;2024-01-25T13:23:01;10.60;99.90
60701;DHT22;46541;49.894;10.886;2024-01-25T13:25:28;10.50;99.90
60701;DHT22;46541;49.894;10.886;2024-01-25T13:27:55;10.50;99.90
60701;DHT22;46541;49.894;10.886;2024-01-25T13:30:21;10.40;99.90
60701;DHT22;46541;49.894;10.886;2024-01-25T13:32:48;10.40;99.90
60701;DHT22;46541;49.894;10.886;2024-01-25T13:35:15;10.40;99.90
60701;DHT22;46541;49.894;10.886;2024-01-25T13:37:42;10.40;99.90
60701;DHT22;46541;49.894;10.886;2024-01-25T13:40:09;10.40;99.90
60701;DHT22;46541;49.894;10.886;2024-01-25T13:42:36;10.40;99.90
60701;DHT22;46541;49.894;10.886;2024-01-25T13:45:05;10.40;99.90
60701;DHT22;46541;49.894;10.886;2024-01-25T13:47:33;10.30;99.90
60701;DHT22;46541;49.894;10.886;2024-01-25T13:49:59;10.30;99.90
60701;DHT22;46541;49.894;10.886;2024-01-25T13:52:26;10.30;99.90
60701;DHT22;46541;49.894;10.886;2024-01-25T13:54:53;10.30;99.90
60701;DHT22;46541;49.894;10.886;2024-01-25T13:57:21;10.20;99.90
60701;DHT22;46541;49.894;10.886;2024-01-25T13:59:50;10.10;99.90
60701;DHT22;46541;49.894;10.886;2024-01-25T14:02:17;10.10;99.90
60701;DHT22;46541;49.894;10.886;2024-01-25T14:04:44;10.00;99.90
60701;DHT22;46541;49.894;10.886;2024-01-25T14:07:13;10.00;99.90
60701;DHT22;46541;49.894;10.886;2024-01-25T14:09:40;9.90;99.90
60701;DHT22;46541;49.894;10.886;2024-01-25T14:12:07;9.80;99.90
60701;DHT22;46541;49.894;10.886;2024-01-25T14:14:36;9.80;99.90
60701;DHT22;46541;49.894;10.886;2024-01-25T14:17:03;9.80;99.90
60701;DHT22;46541;49.894;10.886;2024-01-25T14:19:30;9.70;99.90
60701;DHT22;46541;49.894;10.886;2024-01-25T14:21:57;9.70;99.90
60701;DHT22;46541;49.894;10.886;2024-01-25T14:24:42;9.60;99.90
60701;DHT22;46541;49.894;10.886;2024-01-25T14:27:09;9.50;99.90
60701;DHT22;46541;49.894;10.886;2024-01-25T14:29:36;9.50;99.90
60701;DHT22;46541;49.894;10.886;2024-01-25T14:32:02;9.40;99.90
60701;DHT22;46541;49.894;10.886;2024-01-25T14:34:29;9.30;99.90
60701;DHT22;46541;49.894;10.886;2024-01-25T14:36:56;9.20;99.90
60701;DHT22;46541;49.894;10.886;2024-01-25T14:39:23;9.20;99.90
60701;DHT22;46541;49.894;10.886;2024-01-25T14:41:50;9.20;99.90
60701;DHT22;46541;49.894;10.886;2024-01-25T14:44:17;9.10;99.90
60701;DHT22;46541;49.894;10.886;2024-01-25T14:46:44;9.10;99.90
60701;DHT22;46541;49.894;10.886;2024-01-25T14:49:11;9.10;99.90
60701;DHT22;46541;49.894;10.886;2024-01-25T14:51:38;9.20;99.90
60701;DHT22;46541;49.894;10.886;2024-01-25T14:54:05;9.20;99.90
60701;DHT22;46541;49.894;10.886;2024-01-25T14:56:31;9.20;99.90
60701;DHT22;46541;49.894;10.886;2024-01-25T14:58:58;9.20;99.90
60701;DHT22;46541;49.894;10.886;2024-01-25T15:01:25;9.10;99.90
60701;DHT22;46541;49.894;10.886;2024-01-25T15:03:56;9.10;99.90
60701;DHT22;46541;49.894;10.886;2024-01-25T15:06:24;9.10;99.90
60701;DHT22;46541;49.894;10.886;2024-01-25T15:08:51;9.10;99.90
60701;DHT22;46541;49.894;10.886;2024-01-25T15:11:18;9.10;99.90
60701;DHT22;46541;49.894;10.886;2024-01-25T15:13:45;9.10;99.90
60701;DHT22;46541;49.894;10.886;2024-01-25T15:16:12;9.10;99.90
60701;DHT22;46541;49.894;10.886;2024-01-25T15:18:38;9.10;99.90
60701;DHT22;46541;49.894;10.886;2024-01-25T15:21:06;9.00;99.90
60701;DHT22;46541;49.894;10.886;2024-01-25T15:23:32;9.00;99.90
60701;DHT22;46541;49.894;10.886;2024-01-25T15:25:59;9.00;99.90
60701;DHT22;46541;49.894;10.886;2024-01-25T15:28:26;9.00;99.90
60701;DHT22;46541;49.894;10.886;2024-01-25T15:30:53;8.90;99.90